Terminal Aerodrome Forecast
Issued by NWS

Home | Current Version | Previous Version | Text Only | Print | Product List | Glossary Off
Versions: 1 2 3 4 5 6 7 8 9 10 11 12 13 14 15 16 17 18 19 20 21 22

000
FTUS43 KFGF 041726
TAFBJI
TAF
KBJI 041726Z 0418/0518 13012G17KT P6SM BKN011
     FM042200 13010KT P6SM VCTS BKN025CB
      TEMPO 0422/0501 -TSRA BKN018CB
     FM050200 VRB06KT P6SM BKN050
     FM050900 VRB05KT P6SM BKN012=

USA.gov is the U.S. government's official web portal to all federal, state and local government web resources and services.